sensor_id;sensor_type;location;lat;lon;timestamp;pressure;altitude;pressure_sealevel;temperature;humidity
42705;BME280;28342;42.594;23.414;2023-02-19T00:01:32;94739.13;;;5.17;69.42
42705;BME280;28342;42.594;23.414;2023-02-19T00:03:59;94758.28;;;5.37;68.55
42705;BME280;28342;42.594;23.414;2023-02-19T00:06:27;94740.69;;;5.23;69.53
42705;BME280;28342;42.594;23.414;2023-02-19T00:08:52;94731.28;;;5.06;69.77
42705;BME280;28342;42.594;23.414;2023-02-19T00:11:21;94732.03;;;5.17;69.84
42705;BME280;28342;42.594;23.414;2023-02-19T00:13:49;94737.56;;;5.00;70.92
42705;BME280;28342;42.594;23.414;2023-02-19T00:16:27;94748.59;;;5.13;70.65
42705;BME280;28342;42.594;23.414;2023-02-19T00:18:55;94711.34;;;4.65;71.32
42705;BME280;28342;42.594;23.414;2023-02-19T00:21:21;94738.41;;;4.70;71.75
42705;BME280;28342;42.594;23.414;2023-02-19T00:23:51;94708.72;;;4.65;71.33
42705;BME280;28342;42.594;23.414;2023-02-19T00:26:18;94731.31;;;4.66;72.05
42705;BME280;28342;42.594;23.414;2023-02-19T00:28:51;94719.78;;;4.62;72.12
42705;BME280;28342;42.594;23.414;2023-02-19T00:31:28;94740.25;;;4.55;72.36
42705;BME280;28342;42.594;23.414;2023-02-19T00:33:56;94723.72;;;4.64;71.60
42705;BME280;28342;42.594;23.414;2023-02-19T00:36:22;94732.38;;;4.65;72.17
42705;BME280;28342;42.594;23.414;2023-02-19T00:38:48;94718.72;;;4.47;72.80
42705;BME280;28342;42.594;23.414;2023-02-19T00:41:15;94701.91;;;4.43;72.96
42705;BME280;28342;42.594;23.414;2023-02-19T00:43:48;94725.00;;;4.26;74.17
42705;BME280;28342;42.594;23.414;2023-02-19T00:46:19;94732.63;;;4.33;73.66
42705;BME280;28342;42.594;23.414;2023-02-19T00:48:45;94706.63;;;4.26;73.75
42705;BME280;28342;42.594;23.414;2023-02-19T00:51:11;94726.59;;;4.42;72.94
42705;BME280;28342;42.594;23.414;2023-02-19T00:53:37;94723.19;;;4.16;74.42
42705;BME280;28342;42.594;23.414;2023-02-19T00:56:03;94688.50;;;4.04;74.60
42705;BME280;28342;42.594;23.414;2023-02-19T00:58:43;94685.59;;;4.11;73.99
42705;BME280;28342;42.594;23.414;2023-02-19T01:01:10;94701.91;;;4.33;73.07
42705;BME280;28342;42.594;23.414;2023-02-19T01:03:36;94683.78;;;4.22;73.57
42705;BME280;28342;42.594;23.414;2023-02-19T01:06:06;94680.91;;;4.23;73.68
42705;BME280;28342;42.594;23.414;2023-02-19T01:08:32;94699.78;;;4.25;73.66
42705;BME280;28342;42.594;23.414;2023-02-19T01:10:59;94714.50;;;4.41;72.99
42705;BME280;28342;42.594;23.414;2023-02-19T01:13:25;94699.00;;;4.19;73.63
42705;BME280;28342;42.594;23.414;2023-02-19T01:16:01;94687.16;;;3.76;76.14
42705;BME280;28342;42.594;23.414;2023-02-19T01:18:29;94698.97;;;3.94;75.70
42705;BME280;28342;42.594;23.414;2023-02-19T01:20:55;94687.72;;;4.04;74.84
42705;BME280;28342;42.594;23.414;2023-02-19T01:23:21;94690.59;;;4.02;74.86
42705;BME280;28342;42.594;23.414;2023-02-19T01:25:48;94701.59;;;3.94;75.83
42705;BME280;28342;42.594;23.414;2023-02-19T01:28:14;94682.94;;;3.80;76.56
42705;BME280;28342;42.594;23.414;2023-02-19T01:30:43;94684.28;;;3.88;76.03
42705;BME280;28342;42.594;23.414;2023-02-19T01:33:10;94678.78;;;3.84;75.90
42705;BME280;28342;42.594;23.414;2023-02-19T01:35:39;94686.66;;;3.89;74.77
42705;BME280;28342;42.594;23.414;2023-02-19T01:38:04;94699.00;;;4.09;73.92
42705;BME280;28342;42.594;23.414;2023-02-19T01:40:32;94688.47;;;3.94;74.56
42705;BME280;28342;42.594;23.414;2023-02-19T01:42:59;94727.63;;;4.16;74.52
42705;BME280;28342;42.594;23.414;2023-02-19T01:45:42;94720.25;;;4.13;73.84
42705;BME280;28342;42.594;23.414;2023-02-19T01:48:34;94733.66;;;4.27;73.88
42705;BME280;28342;42.594;23.414;2023-02-19T01:51:08;94746.00;;;4.21;74.18
42705;BME280;28342;42.594;23.414;2023-02-19T01:53:40;94755.19;;;4.24;74.05
42705;BME280;28342;42.594;23.414;2023-02-19T01:56:08;94735.50;;;4.01;74.10
42705;BME280;28342;42.594;23.414;2023-02-19T01:58:36;94779.06;;;4.12;74.42
42705;BME280;28342;42.594;23.414;2023-02-19T02:01:05;94774.09;;;4.15;73.42
42705;BME280;28342;42.594;23.414;2023-02-19T02:03:32;94777.50;;;4.21;72.94
42705;BME280;28342;42.594;23.414;2023-02-19T02:06:02;94729.16;;;3.86;73.67
42705;BME280;28342;42.594;23.414;2023-02-19T02:08:31;94762.75;;;3.95;74.59
42705;BME280;28342;42.594;23.414;2023-02-19T02:11:16;94776.97;;;4.04;74.53
42705;BME280;28342;42.594;23.414;2023-02-19T02:13:44;94761.94;;;3.84;75.29
42705;BME280;28342;42.594;23.414;2023-02-19T02:16:20;94757.47;;;3.79;75.26
42705;BME280;28342;42.594;23.414;2023-02-19T02:21:35;94767.19;;;3.84;75.17
42705;BME280;28342;42.594;23.414;2023-02-19T02:32:48;94731.44;;;3.57;76.00
42705;BME280;28342;42.594;23.414;2023-02-19T02:35:22;94759.06;;;3.85;75.04
42705;BME280;28342;42.594;23.414;2023-02-19T02:37:49;94759.59;;;3.98;74.88
42705;BME280;28342;42.594;23.414;2023-02-19T02:40:16;94752.75;;;3.81;75.76
42705;BME280;28342;42.594;23.414;2023-02-19T02:42:44;94759.06;;;3.85;76.16
42705;BME280;28342;42.594;23.414;2023-02-19T02:45:29;94733.84;;;3.69;75.60
42705;BME280;28342;42.594;23.414;2023-02-19T02:50:45;94736.88;;;3.46;77.04
42705;BME280;28342;42.594;23.414;2023-02-19T02:53:20;94742.75;;;3.68;75.88
42705;BME280;28342;42.594;23.414;2023-02-19T02:56:06;94749.84;;;3.73;76.35
42705;BME280;28342;42.594;23.414;2023-02-19T02:58:32;94746.38;;;3.57;76.75
42705;BME280;28342;42.594;23.414;2023-02-19T03:01:03;94712.25;;;3.47;76.06
42705;BME280;28342;42.594;23.414;2023-02-19T03:03:54;94750.63;;;3.73;76.07
42705;BME280;28342;42.594;23.414;2023-02-19T03:06:24;94728.03;;;3.67;76.13
42705;BME280;28342;42.594;23.414;2023-02-19T03:11:29;94744.81;;;3.56;76.70
42705;BME280;28342;42.594;23.414;2023-02-19T03:14:21;94733.81;;;3.64;76.07
42705;BME280;28342;42.594;23.414;2023-02-19T03:17:18;94753.75;;;3.65;75.97
42705;BME280;28342;42.594;23.414;2023-02-19T03:20:09;94754.19;;;3.42;77.00
42705;BME280;28342;42.594;23.414;2023-02-19T03:22:37;94747.91;;;3.48;76.74
42705;BME280;28342;42.594;23.414;2023-02-19T03:25:15;94761.53;;;3.50;76.84
42705;BME280;28342;42.594;23.414;2023-02-19T03:28:04;94765.72;;;3.46;76.83
42705;BME280;28342;42.594;23.414;2023-02-19T03:30:39;94760.50;;;3.46;76.57
42705;BME280;28342;42.594;23.414;2023-02-19T03:33:07;94784.16;;;3.66;75.94
42705;BME280;28342;42.594;23.414;2023-02-19T03:35:37;94782.88;;;3.69;75.75
42705;BME280;28342;42.594;23.414;2023-02-19T03:38:19;94778.78;;;3.36;77.48
42705;BME280;28342;42.594;23.414;2023-02-19T03:46:23;94769.34;;;3.35;76.36
42705;BME280;28342;42.594;23.414;2023-02-19T03:48:59;94803.03;;;3.53;76.80
42705;BME280;28342;42.594;23.414;2023-02-19T03:52:03;94767.22;;;3.26;78.31
42705;BME280;28342;42.594;23.414;2023-02-19T04:00:19;94775.34;;;3.25;77.65
42705;BME280;28342;42.594;23.414;2023-02-19T04:02:57;94791.97;;;3.46;76.82
42705;BME280;28342;42.594;23.414;2023-02-19T04:05:26;94802.22;;;3.52;76.37
42705;BME280;28342;42.594;23.414;2023-02-19T04:07:58;94805.59;;;3.48;76.88
42705;BME280;28342;42.594;23.414;2023-02-19T04:10:26;94772.41;;;3.21;77.08
42705;BME280;28342;42.594;23.414;2023-02-19T04:13:10;94801.84;;;3.28;77.40
42705;BME280;28342;42.594;23.414;2023-02-19T04:15:41;94809.19;;;3.32;76.94
42705;BME280;28342;42.594;23.414;2023-02-19T04:18:15;94813.63;;;3.26;76.99
42705;BME280;28342;42.594;23.414;2023-02-19T04:20:45;94812.75;;;3.15;77.60
42705;BME280;28342;42.594;23.414;2023-02-19T04:23:13;94802.19;;;3.05;77.63
42705;BME280;28342;42.594;23.414;2023-02-19T04:25:43;94826.97;;;3.24;77.56
42705;BME280;28342;42.594;23.414;2023-02-19T04:28:13;94792.47;;;2.95;77.73
42705;BME280;28342;42.594;23.414;2023-02-19T04:30:41;94817.22;;;3.15;76.92
42705;BME280;28342;42.594;23.414;2023-02-19T04:33:09;94825.59;;;3.17;77.14
42705;BME280;28342;42.594;23.414;2023-02-19T04:35:35;94817.88;;;2.95;77.93
42705;BME280;28342;42.594;23.414;2023-02-19T04:38:04;94835.72;;;3.03;78.08
42705;BME280;28342;42.594;23.414;2023-02-19T04:40:29;94849.19;;;3.12;77.93
42705;BME280;28342;42.594;23.414;2023-02-19T04:42:56;94843.66;;;3.08;78.01
42705;BME280;28342;42.594;23.414;2023-02-19T04:45:24;94823.53;;;2.82;78.26
42705;BME280;28342;42.594;23.414;2023-02-19T04:47:50;94838.84;;;2.95;78.27
42705;BME280;28342;42.594;23.414;2023-02-19T04:50:21;94835.19;;;3.01;78.05
42705;BME280;28342;42.594;23.414;2023-02-19T04:52:48;94799.94;;;2.82;77.43
42705;BME280;28342;42.594;23.414;2023-02-19T04:55:16;94810.44;;;2.82;77.54
42705;BME280;28342;42.594;23.414;2023-02-19T04:57:54;94843.06;;;3.01;77.80
42705;BME280;28342;42.594;23.414;2023-02-19T05:00:24;94840.13;;;2.92;77.84
42705;BME280;28342;42.594;23.414;2023-02-19T05:03:11;94830.13;;;2.89;77.46
42705;BME280;28342;42.594;23.414;2023-02-19T05:05:36;94838.56;;;2.91;77.62
42705;BME280;28342;42.594;23.414;2023-02-19T05:08:02;94831.13;;;2.83;78.00
42705;BME280;28342;42.594;23.414;2023-02-19T05:10:28;94842.81;;;2.70;78.76
42705;BME280;28342;42.594;23.414;2023-02-19T05:12:53;94847.00;;;2.72;78.87
42705;BME280;28342;42.594;23.414;2023-02-19T05:15:19;94858.81;;;2.74;78.57
42705;BME280;28342;42.594;23.414;2023-02-19T05:17:45;94861.41;;;2.69;79.46
42705;BME280;28342;42.594;23.414;2023-02-19T05:20:13;94864.56;;;2.71;79.31
42705;BME280;28342;42.594;23.414;2023-02-19T05:22:39;94853.75;;;2.62;79.77
42705;BME280;28342;42.594;23.414;2023-02-19T05:25:04;94852.13;;;2.56;80.06
42705;BME280;28342;42.594;23.414;2023-02-19T05:27:31;94853.69;;;2.57;79.72
42705;BME280;28342;42.594;23.414;2023-02-19T05:30:09;94863.19;;;2.63;79.85
42705;BME280;28342;42.594;23.414;2023-02-19T05:32:36;94863.59;;;2.50;80.26
42705;BME280;28342;42.594;23.414;2023-02-19T05:35:02;94859.53;;;2.37;80.97
42705;BME280;28342;42.594;23.414;2023-02-19T05:37:27;94871.88;;;2.42;81.33
42705;BME280;28342;42.594;23.414;2023-02-19T05:39:53;94862.44;;;2.41;81.31
42705;BME280;28342;42.594;23.414;2023-02-19T05:42:18;94860.97;;;2.50;81.36
42705;BME280;28342;42.594;23.414;2023-02-19T05:44:45;94873.84;;;2.57;81.00
42705;BME280;28342;42.594;23.414;2023-02-19T05:47:12;94853.66;;;2.52;80.70
42705;BME280;28342;42.594;23.414;2023-02-19T05:49:38;94858.94;;;2.57;80.79
42705;BME280;28342;42.594;23.414;2023-02-19T05:52:03;94861.28;;;2.59;81.03
42705;BME280;28342;42.594;23.414;2023-02-19T05:54:29;94874.84;;;2.78;80.73
42705;BME280;28342;42.594;23.414;2023-02-19T05:56:55;94844.31;;;2.61;80.55
42705;BME280;28342;42.594;23.414;2023-02-19T05:59:23;94876.97;;;2.81;81.11
42705;BME280;28342;42.594;23.414;2023-02-19T06:01:50;94867.91;;;2.93;80.62
42705;BME280;28342;42.594;23.414;2023-02-19T06:04:17;94852.84;;;2.79;80.73
42705;BME280;28342;42.594;23.414;2023-02-19T06:06:44;94849.03;;;2.91;80.07
42705;BME280;28342;42.594;23.414;2023-02-19T06:09:10;94872.00;;;3.16;79.54
42705;BME280;28342;42.594;23.414;2023-02-19T06:11:37;94862.53;;;3.10;79.37
42705;BME280;28342;42.594;23.414;2023-02-19T06:14:04;94878.31;;;3.20;79.85
42705;BME280;28342;42.594;23.414;2023-02-19T06:16:31;94872.84;;;3.22;79.76
42705;BME280;28342;42.594;23.414;2023-02-19T06:18:58;94898.69;;;3.45;78.79
42705;BME280;28342;42.594;23.414;2023-02-19T06:21:25;94883.72;;;3.41;78.97
42705;BME280;28342;42.594;23.414;2023-02-19T06:24:12;94889.53;;;3.48;79.11
42705;BME280;28342;42.594;23.414;2023-02-19T06:26:42;94875.09;;;3.45;79.11
42705;BME280;28342;42.594;23.414;2023-02-19T06:29:15;94868.63;;;3.58;78.75
42705;BME280;28342;42.594;23.414;2023-02-19T06:31:43;94884.25;;;3.85;78.86
42705;BME280;28342;42.594;23.414;2023-02-19T06:34:09;94895.56;;;3.96;79.31
42705;BME280;28342;42.594;23.414;2023-02-19T06:36:40;94904.53;;;4.05;78.92
42705;BME280;28342;42.594;23.414;2023-02-19T06:39:06;94880.84;;;3.89;79.30
42705;BME280;28342;42.594;23.414;2023-02-19T06:41:31;94907.75;;;4.17;78.76
42705;BME280;28342;42.594;23.414;2023-02-19T06:44:00;94890.34;;;4.06;79.30
42705;BME280;28342;42.594;23.414;2023-02-19T06:46:27;94890.94;;;4.23;78.74
42705;BME280;28342;42.594;23.414;2023-02-19T06:48:54;94889.94;;;4.34;78.51
42705;BME280;28342;42.594;23.414;2023-02-19T06:51:23;94899.19;;;4.57;78.71
42705;BME280;28342;42.594;23.414;2023-02-19T06:53:56;94884.75;;;4.60;78.43
42705;BME280;28342;42.594;23.414;2023-02-19T06:56:27;94866.38;;;4.60;77.98
42705;BME280;28342;42.594;23.414;2023-02-19T06:58:55;94895.31;;;4.80;77.76
42705;BME280;28342;42.594;23.414;2023-02-19T07:01:22;94909.50;;;4.79;78.08
42705;BME280;28342;42.594;23.414;2023-02-19T07:03:52;94902.13;;;4.81;77.92
42705;BME280;28342;42.594;23.414;2023-02-19T07:06:28;94902.41;;;4.95;77.14
42705;BME280;28342;42.594;23.414;2023-02-19T07:09:03;94893.22;;;4.92;77.17
42705;BME280;28342;42.594;23.414;2023-02-19T07:11:30;94885.06;;;5.04;78.00
42705;BME280;28342;42.594;23.414;2023-02-19T07:13:58;94914.78;;;5.30;77.78
42705;BME280;28342;42.594;23.414;2023-02-19T07:16:24;94891.13;;;5.25;77.21
42705;BME280;28342;42.594;23.414;2023-02-19T07:18:49;94906.88;;;5.50;77.27
42705;BME280;28342;42.594;23.414;2023-02-19T07:21:15;94896.38;;;5.55;77.00
42705;BME280;28342;42.594;23.414;2023-02-19T07:23:42;94873.72;;;5.59;77.31
42705;BME280;28342;42.594;23.414;2023-02-19T07:26:15;94890.50;;;5.79;76.75
42705;BME280;28342;42.594;23.414;2023-02-19T07:29:12;94872.09;;;5.84;76.73
42705;BME280;28342;42.594;23.414;2023-02-19T07:31:38;94881.81;;;6.04;76.53
42705;BME280;28342;42.594;23.414;2023-02-19T07:34:10;94880.69;;;6.20;76.57
42705;BME280;28342;42.594;23.414;2023-02-19T07:36:36;94873.97;;;6.43;75.69
42705;BME280;28342;42.594;23.414;2023-02-19T07:39:02;94863.91;;;6.55;75.29
42705;BME280;28342;42.594;23.414;2023-02-19T07:41:27;94890.56;;;6.93;74.73
42705;BME280;28342;42.594;23.414;2023-02-19T07:43:53;94887.50;;;7.14;74.45
42705;BME280;28342;42.594;23.414;2023-02-19T07:46:19;94867.84;;;7.36;73.84
42705;BME280;28342;42.594;23.414;2023-02-19T07:48:44;94876.75;;;7.69;72.69
42705;BME280;28342;42.594;23.414;2023-02-19T07:51:13;94890.19;;;7.96;71.46
42705;BME280;28342;42.594;23.414;2023-02-19T07:53:40;94863.09;;;8.09;69.16
42705;BME280;28342;42.594;23.414;2023-02-19T07:56:07;94870.78;;;8.35;68.72
42705;BME280;28342;42.594;23.414;2023-02-19T07:58:33;94884.53;;;8.75;63.86
42705;BME280;28342;42.594;23.414;2023-02-19T08:01:16;94891.03;;;9.20;64.13
42705;BME280;28342;42.594;23.414;2023-02-19T08:03:44;94899.34;;;9.46;62.82
42705;BME280;28342;42.594;23.414;2023-02-19T08:06:11;94875.84;;;9.58;61.40
42705;BME280;28342;42.594;23.414;2023-02-19T08:08:39;94887.97;;;9.92;61.66
42705;BME280;28342;42.594;23.414;2023-02-19T08:11:05;94884.16;;;10.25;58.81
42705;BME280;28342;42.594;23.414;2023-02-19T08:13:51;94879.06;;;10.42;54.14
42705;BME280;28342;42.594;23.414;2023-02-19T08:16:18;94879.41;;;10.77;56.59
42705;BME280;28342;42.594;23.414;2023-02-19T08:18:45;94882.69;;;10.96;54.91
42705;BME280;28342;42.594;23.414;2023-02-19T08:21:12;94884.03;;;11.30;53.20
42705;BME280;28342;42.594;23.414;2023-02-19T08:23:38;94862.13;;;11.47;51.40
42705;BME280;28342;42.594;23.414;2023-02-19T08:26:06;94886.59;;;11.80;49.46
42705;BME280;28342;42.594;23.414;2023-02-19T08:28:31;94898.00;;;12.11;50.54
42705;BME280;28342;42.594;23.414;2023-02-19T08:31:02;94902.50;;;12.42;48.99
42705;BME280;28342;42.594;23.414;2023-02-19T08:33:28;94882.94;;;12.46;47.37
42705;BME280;28342;42.594;23.414;2023-02-19T08:35:55;94903.53;;;12.72;47.87
42705;BME280;28342;42.594;23.414;2023-02-19T08:38:20;94879.56;;;12.80;47.21
42705;BME280;28342;42.594;23.414;2023-02-19T08:40:46;94904.66;;;13.14;47.51
42705;BME280;28342;42.594;23.414;2023-02-19T08:43:14;94895.75;;;13.27;49.91
42705;BME280;28342;42.594;23.414;2023-02-19T08:45:41;94897.44;;;13.58;48.77
42705;BME280;28342;42.594;23.414;2023-02-19T08:48:07;94902.41;;;13.94;47.82
42705;BME280;28342;42.594;23.414;2023-02-19T08:50:34;94889.34;;;14.10;45.67
42705;BME280;28342;42.594;23.414;2023-02-19T08:53:01;94888.81;;;14.25;45.20
42705;BME280;28342;42.594;23.414;2023-02-19T08:55:27;94895.66;;;14.43;43.80
42705;BME280;28342;42.594;23.414;2023-02-19T08:57:52;94885.88;;;14.56;44.19
42705;BME280;28342;42.594;23.414;2023-02-19T09:00:18;94875.28;;;14.68;43.39
42705;BME280;28342;42.594;23.414;2023-02-19T09:02:43;94885.47;;;14.75;43.09
42705;BME280;28342;42.594;23.414;2023-02-19T09:05:12;94864.34;;;14.82;43.35
42705;BME280;28342;42.594;23.414;2023-02-19T09:07:38;94866.69;;;14.83;41.74
42705;BME280;28342;42.594;23.414;2023-02-19T09:10:04;94869.53;;;14.87;42.34
42705;BME280;28342;42.594;23.414;2023-02-19T09:12:30;94862.75;;;14.22;42.27
42705;BME280;28342;42.594;23.414;2023-02-19T09:14:57;94867.88;;;14.35;44.00
42705;BME280;28342;42.594;23.414;2023-02-19T09:17:22;94850.66;;;14.62;42.81
42705;BME280;28342;42.594;23.414;2023-02-19T09:19:48;94862.47;;;14.82;42.13
42705;BME280;28342;42.594;23.414;2023-02-19T09:22:13;94852.63;;;14.95;42.18
42705;BME280;28342;42.594;23.414;2023-02-19T09:24:39;94849.09;;;15.24;43.30
42705;BME280;28342;42.594;23.414;2023-02-19T09:27:04;94839.69;;;15.39;40.96
42705;BME280;28342;42.594;23.414;2023-02-19T09:29:29;94847.84;;;15.42;40.85
42705;BME280;28342;42.594;23.414;2023-02-19T09:31:59;94824.38;;;15.48;42.37
42705;BME280;28342;42.594;23.414;2023-02-19T09:34:25;94827.19;;;15.31;41.08
42705;BME280;28342;42.594;23.414;2023-02-19T09:36:51;94831.72;;;15.51;41.87
42705;BME280;28342;42.594;23.414;2023-02-19T09:39:17;94818.44;;;15.63;41.17
42705;BME280;28342;42.594;23.414;2023-02-19T09:44:13;94841.78;;;15.99;39.91
42705;BME280;28342;42.594;23.414;2023-02-19T09:46:51;94843.44;;;16.04;41.31
42705;BME280;28342;42.594;23.414;2023-02-19T09:49:20;94828.75;;;15.98;40.40
42705;BME280;28342;42.594;23.414;2023-02-19T09:51:54;94837.66;;;16.14;41.40
42705;BME280;28342;42.594;23.414;2023-02-19T09:54:24;94831.88;;;16.24;41.51
42705;BME280;28342;42.594;23.414;2023-02-19T09:56:51;94838.81;;;16.25;40.39
42705;BME280;28342;42.594;23.414;2023-02-19T09:59:20;94821.66;;;15.69;40.21
42705;BME280;28342;42.594;23.414;2023-02-19T10:01:53;94818.69;;;15.82;40.30
42705;BME280;28342;42.594;23.414;2023-02-19T10:04:20;94812.03;;;16.13;41.24
42705;BME280;28342;42.594;23.414;2023-02-19T10:06:46;94805.53;;;16.38;41.28
42705;BME280;28342;42.594;23.414;2023-02-19T10:09:24;94791.41;;;16.26;39.11
42705;BME280;28342;42.594;23.414;2023-02-19T10:11:53;94795.59;;;15.90;39.30
42705;BME280;28342;42.594;23.414;2023-02-19T10:16:51;94768.53;;;16.04;41.06
42705;BME280;28342;42.594;23.414;2023-02-19T10:19:19;94784.59;;;16.28;40.03
42705;BME280;28342;42.594;23.414;2023-02-19T10:21:45;94776.31;;;16.33;39.42
42705;BME280;28342;42.594;23.414;2023-02-19T10:24:24;94772.31;;;16.27;38.87
42705;BME280;28342;42.594;23.414;2023-02-19T10:26:51;94780.22;;;16.36;40.38
42705;BME280;28342;42.594;23.414;2023-02-19T10:29:17;94762.59;;;16.35;39.83
42705;BME280;28342;42.594;23.414;2023-02-19T10:31:44;94755.59;;;16.30;39.17
42705;BME280;28342;42.594;23.414;2023-02-19T10:34:21;94755.34;;;16.35;40.04
42705;BME280;28342;42.594;23.414;2023-02-19T10:36:51;94748.69;;;16.29;39.86
42705;BME280;28342;42.594;23.414;2023-02-19T10:39:38;94747.56;;;16.30;38.93
42705;BME280;28342;42.594;23.414;2023-02-19T10:42:13;94730.28;;;16.03;39.91
42705;BME280;28342;42.594;23.414;2023-02-19T10:44:42;94717.94;;;15.62;38.65
42705;BME280;28342;42.594;23.414;2023-02-19T10:47:15;94729.97;;;15.68;40.44
42705;BME280;28342;42.594;23.414;2023-02-19T10:49:41;94717.13;;;15.74;39.92
42705;BME280;28342;42.594;23.414;2023-02-19T10:54:43;94709.34;;;15.69;40.85
42705;BME280;28342;42.594;23.414;2023-02-19T10:59:51;94692.06;;;15.66;40.28
42705;BME280;28342;42.594;23.414;2023-02-19T11:02:18;94679.38;;;15.63;41.12
42705;BME280;28342;42.594;23.414;2023-02-19T11:05:17;94691.38;;;15.57;40.14
42705;BME280;28342;42.594;23.414;2023-02-19T11:07:56;94674.53;;;15.57;39.87
42705;BME280;28342;42.594;23.414;2023-02-19T11:10:26;94671.22;;;15.60;40.42
42705;BME280;28342;42.594;23.414;2023-02-19T11:12:55;94677.56;;;15.55;41.40
42705;BME280;28342;42.594;23.414;2023-02-19T11:15:33;94665.09;;;15.59;40.53
42705;BME280;28342;42.594;23.414;2023-02-19T11:20:38;94669.56;;;15.67;41.39
42705;BME280;28342;42.594;23.414;2023-02-19T11:23:21;94642.59;;;15.60;40.28
42705;BME280;28342;42.594;23.414;2023-02-19T11:25:49;94636.59;;;15.63;40.74
42705;BME280;28342;42.594;23.414;2023-02-19T11:28:36;94653.97;;;15.69;40.10
42705;BME280;28342;42.594;23.414;2023-02-19T11:31:25;94637.69;;;15.50;40.09
42705;BME280;28342;42.594;23.414;2023-02-19T11:33:58;94648.84;;;15.64;39.73
42705;BME280;28342;42.594;23.414;2023-02-19T11:36:35;94642.94;;;15.71;41.29
42705;BME280;28342;42.594;23.414;2023-02-19T11:54:50;94605.81;;;15.81;41.37
42705;BME280;28342;42.594;23.414;2023-02-19T11:57:43;94604.47;;;15.88;40.77
42705;BME280;28342;42.594;23.414;2023-02-19T12:00:28;94605.47;;;15.95;39.79
42705;BME280;28342;42.594;23.414;2023-02-19T12:03:14;94602.66;;;15.92;40.12
42705;BME280;28342;42.594;23.414;2023-02-19T12:11:48;94572.94;;;15.81;39.00
42705;BME280;28342;42.594;23.414;2023-02-19T12:26:15;94565.97;;;16.32;39.23
42705;BME280;28342;42.594;23.414;2023-02-19T12:31:23;94544.38;;;16.25;37.49
42705;BME280;28342;42.594;23.414;2023-02-19T12:34:00;94543.38;;;16.18;37.29
42705;BME280;28342;42.594;23.414;2023-02-19T12:37:04;94539.88;;;16.29;38.92
42705;BME280;28342;42.594;23.414;2023-02-19T12:45:06;94512.72;;;16.43;38.18
42705;BME280;28342;42.594;23.414;2023-02-19T12:47:41;94502.19;;;16.50;38.62
42705;BME280;28342;42.594;23.414;2023-02-19T12:50:24;94511.16;;;16.70;38.40
42705;BME280;28342;42.594;23.414;2023-02-19T12:52:58;94500.94;;;16.76;38.63
42705;BME280;28342;42.594;23.414;2023-02-19T12:55:39;94494.28;;;16.69;38.15
42705;BME280;28342;42.594;23.414;2023-02-19T12:58:12;94491.84;;;16.80;38.73
42705;BME280;28342;42.594;23.414;2023-02-19T13:00:55;94474.66;;;16.81;38.29
42705;BME280;28342;42.594;23.414;2023-02-19T13:06:20;94478.88;;;16.98;37.61
42705;BME280;28342;42.594;23.414;2023-02-19T13:09:17;94474.13;;;17.07;37.51
42705;BME280;28342;42.594;23.414;2023-02-19T13:12:07;94469.16;;;16.74;36.55
42705;BME280;28342;42.594;23.414;2023-02-19T13:14:36;94474.44;;;16.70;37.03
42705;BME280;28342;42.594;23.414;2023-02-19T13:17:33;94462.94;;;16.70;37.84
42705;BME280;28342;42.594;23.414;2023-02-19T13:20:32;94462.03;;;16.66;37.92
42705;BME280;28342;42.594;23.414;2023-02-19T13:32:20;94436.81;;;16.67;38.78
42705;BME280;28342;42.594;23.414;2023-02-19T13:35:24;94424.53;;;16.66;35.32
42705;BME280;28342;42.594;23.414;2023-02-19T13:37:51;94424.31;;;16.71;36.21
42705;BME280;28342;42.594;23.414;2023-02-19T13:43:06;94413.94;;;16.85;36.52
42705;BME280;28342;42.594;23.414;2023-02-19T13:45:56;94416.59;;;16.85;35.81
42705;BME280;28342;42.594;23.414;2023-02-19T13:48:34;94414.34;;;16.87;35.43
42705;BME280;28342;42.594;23.414;2023-02-19T13:59:24;94395.69;;;16.75;37.07
42705;BME280;28342;42.594;23.414;2023-02-19T14:04:22;94405.72;;;16.78;35.84
42705;BME280;28342;42.594;23.414;2023-02-19T14:19:52;94385.13;;;16.82;37.93
42705;BME280;28342;42.594;23.414;2023-02-19T14:30:42;94362.72;;;16.71;36.43
42705;BME280;28342;42.594;23.414;2023-02-19T14:33:10;94363.69;;;16.82;36.96
42705;BME280;28342;42.594;23.414;2023-02-19T14:35:39;94359.66;;;16.88;36.33
42705;BME280;28342;42.594;23.414;2023-02-19T14:38:15;94360.22;;;16.97;37.67
42705;BME280;28342;42.594;23.414;2023-02-19T14:40:42;94369.97;;;17.06;37.52
42705;BME280;28342;42.594;23.414;2023-02-19T14:43:14;94368.13;;;17.10;36.36
42705;BME280;28342;42.594;23.414;2023-02-19T14:45:43;94365.88;;;17.12;37.17
42705;BME280;28342;42.594;23.414;2023-02-19T14:48:41;94360.25;;;17.17;37.64
42705;BME280;28342;42.594;23.414;2023-02-19T14:51:15;94351.22;;;17.06;37.61
42705;BME280;28342;42.594;23.414;2023-02-19T14:53:45;94356.56;;;17.06;37.43
42705;BME280;28342;42.594;23.414;2023-02-19T14:56:27;94361.91;;;17.06;36.99
42705;BME280;28342;42.594;23.414;2023-02-19T15:01:37;94343.34;;;16.97;38.33
42705;BME280;28342;42.594;23.414;2023-02-19T15:04:04;94346.81;;;16.97;38.37
42705;BME280;28342;42.594;23.414;2023-02-19T15:06:32;94341.72;;;16.92;37.64
42705;BME280;28342;42.594;23.414;2023-02-19T15:09:03;94342.44;;;16.89;37.19
42705;BME280;28342;42.594;23.414;2023-02-19T15:11:31;94330.72;;;16.78;37.45
42705;BME280;28342;42.594;23.414;2023-02-19T15:14:02;94341.50;;;16.82;37.80
42705;BME280;28342;42.594;23.414;2023-02-19T15:16:29;94336.00;;;16.75;38.33
42705;BME280;28342;42.594;23.414;2023-02-19T15:18:57;94333.53;;;16.34;39.29
42705;BME280;28342;42.594;23.414;2023-02-19T15:21:29;94335.78;;;16.32;40.82
42705;BME280;28342;42.594;23.414;2023-02-19T15:24:00;94331.13;;;16.29;40.10
42705;BME280;28342;42.594;23.414;2023-02-19T15:26:40;94321.63;;;16.16;39.90
42705;BME280;28342;42.594;23.414;2023-02-19T15:29:13;94319.88;;;16.08;41.05